createdAt,value
2019-05-30T00:00:05.861Z,4.40
2019-05-30T00:04:56.085Z,4.90
2019-05-30T00:10:00.956Z,4.47
2019-05-30T00:15:08.594Z,7.37
2019-05-30T00:20:13.050Z,5.20
2019-05-30T00:25:17.412Z,2.50
2019-05-30T00:30:24.723Z,2.40
2019-05-30T00:35:27.970Z,3.47
2019-05-30T00:40:32.407Z,3.33
2019-05-30T00:45:36.757Z,3.53
2019-05-30T00:50:41.144Z,3.10
2019-05-30T00:55:45.531Z,4.20
2019-05-30T01:00:49.926Z,6.07
2019-05-30T01:05:54.271Z,4.97
2019-05-30T01:10:59.024Z,3.07
2019-05-30T01:16:03.769Z,4.03
2019-05-30T01:21:08.115Z,4.70
2019-05-30T01:26:12.929Z,3.77
2019-05-30T01:31:18.365Z,3.73
2019-05-30T01:36:22.757Z,4.47
2019-05-30T01:41:27.072Z,3.90
2019-05-30T01:46:31.452Z,5.67
2019-05-30T01:51:35.847Z,3.20
2019-05-30T01:56:40.216Z,5.10
2019-05-30T02:01:44.601Z,3.90
2019-05-30T02:06:48.949Z,5.20
2019-05-30T02:11:53.465Z,5.67
2019-05-30T02:16:57.847Z,3.77
2019-05-30T02:22:02.225Z,4.70
2019-05-30T02:27:06.580Z,4.47
2019-05-30T02:32:11.214Z,4.83
2019-05-30T02:37:15.745Z,4.67
2019-05-30T02:42:20.133Z,4.30
2019-05-30T02:47:24.633Z,4.67
2019-05-30T02:52:29.068Z,4.30
2019-05-30T02:57:33.439Z,3.87
2019-05-30T03:02:37.847Z,4.37
2019-05-30T03:07:42.274Z,6.33
2019-05-30T03:12:46.757Z,3.97
2019-05-30T03:17:51.136Z,4.70
2019-05-30T03:22:55.479Z,3.33
2019-05-30T03:27:59.844Z,3.37
2019-05-30T03:33:16.483Z,6.03
2019-05-30T03:38:12.872Z,4.07
2019-05-30T03:43:16.553Z,6.53
2019-05-30T03:48:21.859Z,5.00
2019-05-30T03:53:26.274Z,3.23
2019-05-30T03:58:53.160Z,4.60
2019-05-30T04:04:16.717Z,2.62
2019-05-30T04:09:24.961Z,3.13
2019-05-30T04:14:30.175Z,5.00
2019-05-30T04:19:34.529Z,4.97
2019-05-30T04:24:39.039Z,3.00
2019-05-30T04:29:43.396Z,3.63
2019-05-30T04:34:47.803Z,2.33
2019-05-30T04:39:52.184Z,5.33
2019-05-30T04:44:56.540Z,2.60
2019-05-30T04:50:00.950Z,2.70
2019-05-30T04:55:10.512Z,4.27
2019-05-30T05:00:17.093Z,4.17
2019-05-30T05:05:26.514Z,3.37
2019-05-30T05:10:27.658Z,3.00
2019-05-30T05:15:32.024Z,5.23
2019-05-30T05:20:36.549Z,4.10
2019-05-30T05:25:40.957Z,2.77
2019-05-30T05:30:45.345Z,3.25
2019-05-30T05:35:49.729Z,3.13
2019-05-30T05:40:54.106Z,4.00
2019-05-30T05:45:58.452Z,4.03
2019-05-30T05:51:02.929Z,2.43
2019-05-30T05:56:07.261Z,2.90
2019-05-30T06:01:11.615Z,3.90
2019-05-30T06:06:17.146Z,3.87
2019-05-30T06:11:22.724Z,4.10
2019-05-30T06:16:28.404Z,2.93
2019-05-30T06:21:32.992Z,3.30
2019-05-30T06:26:37.376Z,4.47
2019-05-30T06:31:41.742Z,3.80
2019-05-30T06:36:46.125Z,3.33
2019-05-30T06:41:50.473Z,2.07
2019-05-30T06:46:54.851Z,4.83
2019-05-30T06:51:59.196Z,2.23
2019-05-30T06:57:03.551Z,4.60
2019-05-30T07:02:07.921Z,2.57
2019-05-30T07:07:12.475Z,2.93
2019-05-30T07:12:17.002Z,1.63
2019-05-30T07:17:21.376Z,1.97
2019-05-30T07:22:25.692Z,3.20
2019-05-30T07:27:30.049Z,5.17
2019-05-30T07:32:34.504Z,2.70
2019-05-30T07:37:38.858Z,3.00
2019-05-30T07:42:43.299Z,2.50
2019-05-30T07:47:47.664Z,1.90
2019-05-30T07:52:52.046Z,3.10
2019-05-30T07:57:56.515Z,2.37
2019-05-30T08:03:00.906Z,1.40
2019-05-30T08:08:05.279Z,1.67
2019-05-30T08:13:09.663Z,2.10
2019-05-30T08:18:14.074Z,2.97
2019-05-30T08:23:18.454Z,3.40
2019-05-30T08:28:22.991Z,1.30
2019-05-30T08:33:27.366Z,2.97
2019-05-30T08:38:32.909Z,2.33
2019-05-30T08:43:37.642Z,3.77
2019-05-30T08:48:42.114Z,2.53
2019-05-30T08:53:50.330Z,2.23
2019-05-30T08:58:56.794Z,3.70
2019-05-30T09:04:07.824Z,1.80
2019-05-30T09:09:12.339Z,3.53
2019-05-30T09:14:16.769Z,2.87
2019-05-30T09:19:21.269Z,3.17
2019-05-30T09:24:25.652Z,1.43
2019-05-30T09:29:30.093Z,3.13
2019-05-30T09:34:34.454Z,2.10
2019-05-30T09:39:39.953Z,2.90
2019-05-30T09:44:48.020Z,2.87
2019-05-30T09:49:51.245Z,3.47
2019-05-30T09:54:56.253Z,4.20
2019-05-30T10:00:00.654Z,2.43
2019-05-30T10:05:07.593Z,3.17
2019-05-30T10:10:12.750Z,3.07
2019-05-30T10:15:18.065Z,2.50
2019-05-30T10:20:22.889Z,1.70
2019-05-30T10:25:27.305Z,1.87
2019-05-30T10:30:32.081Z,1.97
2019-05-30T10:35:36.478Z,1.40
2019-05-30T10:40:40.843Z,2.37
2019-05-30T10:45:47.501Z,3.07
2019-05-30T10:50:52.281Z,2.67
2019-05-30T10:55:56.740Z,1.47
2019-05-30T11:01:01.404Z,1.43
2019-05-30T11:06:20.206Z,1.60
2019-05-30T11:11:24.543Z,1.50
2019-05-30T11:16:28.930Z,1.70
2019-05-30T11:21:33.376Z,1.10
2019-05-30T11:26:37.803Z,2.10
2019-05-30T11:31:42.206Z,1.60
2019-05-30T11:36:46.521Z,2.47
2019-05-30T11:41:51.170Z,1.47
2019-05-30T11:46:55.659Z,1.70
2019-05-30T11:52:00.048Z,1.43
2019-05-30T11:57:04.548Z,2.37
2019-05-30T12:02:08.967Z,2.47
2019-05-30T12:07:13.331Z,2.30
2019-05-30T12:12:18.762Z,2.03
2019-05-30T12:17:23.130Z,2.10
2019-05-30T12:22:27.478Z,2.87
2019-05-30T12:27:31.854Z,2.67
2019-05-30T12:32:36.386Z,3.10
2019-05-30T12:37:54.183Z,1.30
2019-05-30T12:42:46.852Z,2.17
2019-05-30T12:47:52.996Z,1.60
2019-05-30T12:52:57.696Z,2.83
2019-05-30T12:58:02.906Z,1.50
2019-05-30T13:03:07.484Z,1.77
2019-05-30T13:08:21.355Z,1.47
2019-05-30T13:13:17.950Z,2.57
2019-05-30T13:18:22.333Z,1.53
2019-05-30T13:23:26.881Z,2.80
2019-05-30T13:28:31.235Z,1.40
2019-05-30T13:33:38.322Z,2.30
2019-05-30T13:38:41.683Z,1.40
2019-05-30T13:43:46.034Z,1.57
2019-05-30T13:48:50.391Z,1.80
2019-05-30T13:53:54.815Z,2.43
2019-05-30T13:58:59.656Z,2.87
2019-05-30T14:04:04.760Z,2.17
2019-05-30T14:09:10.484Z,2.60
2019-05-30T14:14:15.657Z,2.50
2019-05-30T14:19:20.034Z,1.57
2019-05-30T14:24:24.412Z,1.80
2019-05-30T14:29:28.829Z,1.77
2019-05-30T14:34:33.224Z,1.70
2019-05-30T14:39:37.662Z,1.57
2019-05-30T14:44:42.003Z,2.33
2019-05-30T14:49:46.367Z,2.40
2019-05-30T14:54:50.714Z,2.25
2019-05-30T14:59:55.099Z,1.25
2019-05-30T15:04:59.441Z,1.40
2019-05-30T15:10:06.622Z,1.50
2019-05-30T15:15:16.722Z,2.20
2019-05-30T15:20:20.641Z,1.40
2019-05-30T15:25:25.068Z,3.30
2019-05-30T15:30:29.623Z,2.35
2019-05-30T15:35:35.039Z,1.73
2019-05-30T15:40:39.723Z,1.83
2019-05-30T15:45:44.066Z,1.67
2019-05-30T15:50:48.448Z,1.55
2019-05-30T15:55:52.832Z,2.70
2019-05-30T16:00:57.183Z,1.47
2019-05-30T16:06:01.527Z,2.05
2019-05-30T16:11:06.018Z,1.62
2019-05-30T16:16:11.470Z,2.50
2019-05-30T16:21:17.158Z,1.90
2019-05-30T16:26:23.229Z,1.77
2019-05-30T16:31:27.579Z,1.70
2019-05-30T16:36:31.926Z,1.70
2019-05-30T16:41:36.290Z,2.40
2019-05-30T16:46:40.670Z,1.37
2019-05-30T16:51:45.020Z,1.82
2019-05-30T16:56:49.393Z,3.10
2019-05-30T17:01:57.950Z,1.90
2019-05-30T17:06:59.851Z,1.75
2019-05-30T17:12:04.224Z,3.57
2019-05-30T17:17:08.595Z,2.10
2019-05-30T17:22:12.969Z,3.27
2019-05-30T17:27:17.383Z,1.77
2019-05-30T17:32:21.824Z,1.92
2019-05-30T17:37:26.481Z,1.50
2019-05-30T17:42:30.991Z,2.23
2019-05-30T17:47:35.987Z,1.67
2019-05-30T17:52:43.238Z,1.80
2019-05-30T17:57:47.766Z,1.90
2019-05-30T18:02:55.151Z,2.10
2019-05-30T18:08:04.620Z,3.90
2019-05-30T18:13:09.178Z,1.93
2019-05-30T18:18:13.674Z,2.03
2019-05-30T18:23:18.093Z,2.20
2019-05-30T18:28:23.618Z,1.70
2019-05-30T18:33:28.395Z,2.87
2019-05-30T18:38:32.917Z,2.33
2019-05-30T18:43:37.319Z,2.30
2019-05-30T18:48:41.671Z,2.33
2019-05-30T18:53:52.330Z,2.40
2019-05-30T18:58:56.904Z,3.83
2019-05-30T19:04:02.755Z,5.00
2019-05-30T19:09:07.792Z,5.73
2019-05-30T19:14:12.396Z,3.33
2019-05-30T19:19:16.816Z,6.17
2019-05-30T19:24:21.142Z,9.10
2019-05-30T19:29:26.615Z,5.10
2019-05-30T19:34:31.281Z,4.53
2019-05-30T19:39:35.767Z,5.17
2019-05-30T19:44:41.606Z,4.50
2019-05-30T19:49:46.225Z,5.33
2019-05-30T19:54:51.745Z,5.43
2019-05-30T19:59:57.420Z,6.47
2019-05-30T20:05:01.933Z,7.10
2019-05-30T20:10:07.425Z,7.33
2019-05-30T20:15:14.803Z,6.53
2019-05-30T20:20:19.302Z,7.37
2019-05-30T20:25:24.595Z,5.37
2019-05-30T20:30:29.747Z,6.13
2019-05-30T20:35:36.123Z,8.00
2019-05-30T20:40:40.936Z,7.70
2019-05-30T20:45:48.866Z,7.53
2019-05-30T20:50:52.374Z,5.90
2019-05-30T20:55:56.735Z,6.10
2019-05-30T21:01:01.109Z,6.47
2019-05-30T21:06:05.806Z,7.20
2019-05-30T21:11:11.037Z,6.47
2019-05-30T21:16:16.254Z,10.43
2019-05-30T21:21:20.614Z,8.83
2019-05-30T21:26:24.984Z,8.67
2019-05-30T21:31:29.329Z,7.63
2019-05-30T21:36:33.769Z,7.83
2019-05-30T21:41:38.156Z,8.17
2019-05-30T21:46:42.614Z,8.70
2019-05-30T21:51:47.563Z,8.93
2019-05-30T21:56:51.990Z,6.97
2019-05-30T22:01:57.560Z,6.33
2019-05-30T22:07:02.208Z,5.80
2019-05-30T22:12:06.624Z,7.07
2019-05-30T22:17:11.059Z,5.80
2019-05-30T22:22:15.420Z,9.67
2019-05-30T22:27:19.815Z,6.30
2019-05-30T22:32:24.168Z,7.20
2019-05-30T22:37:28.555Z,9.57
2019-05-30T22:42:32.907Z,7.40
2019-05-30T22:47:37.339Z,7.00
2019-05-30T22:52:41.699Z,6.10
2019-05-30T22:57:46.414Z,7.43
2019-05-30T23:02:51.951Z,6.90
2019-05-30T23:07:56.369Z,6.03
2019-05-30T23:13:00.721Z,5.93
2019-05-30T23:18:06.174Z,7.40
2019-05-30T23:23:10.553Z,9.50
2019-05-30T23:28:14.918Z,6.70
2019-05-30T23:33:19.268Z,7.07
2019-05-30T23:38:23.631Z,7.50
2019-05-30T23:43:28.011Z,6.43
2019-05-30T23:48:32.358Z,7.37
2019-05-30T23:53:36.701Z,7.37
2019-05-30T23:58:41.097Z,6.00
